EGNV/MME METAR and TAF weather

Enter ICAO airport designator
Station Type Date Time Source
EGNV METAR 2019/10/23 12:20 UTC NOAA

EGNV 231220Z 20012KT 9999 FEW030 13/07 Q1011


Station Type Date Time Source
EGNV Decoded METAR 2019/10/23 12:20 UTC NOAA

Tees-Side, United Kingdom (EGNV) 54-31N 001-25W
Oct 23, 2019 - 08:20 AM EDT / 2019.10.23 1220 UTC
Wind: from the SSW (200 degrees) at 14 MPH (12 KT):0
Visibility: greater than 7 mile(s):0
Sky conditions: mostly clear
Temperature: 55 F (13 C)
Dew Point: 44 F (7 C)
Relative Humidity: 66%
Pressure (altimeter): 29.85 in. Hg (1011 hPa)
ob: EGNV 231220Z 20012KT 9999 FEW030 13/07 Q1011
cycle: 12

Station Type Date Time Source
EGNV TAF 2016/01/23 12:00 UTC NOAA

TAF EGNV 231059Z 2312/2321 18008KT 9999 FEW030 PROB40 2319/2321 6000 RADZ BKN014

Example: see airport list